sensor_id;sensor_type;location;lat;lon;timestamp;P1;durP1;ratioP1;P2;durP2;ratioP2
20076;SDS011;12348;42.710;23.378;2023-06-22T00:04:38;12.53;;;9.57;;
20076;SDS011;12348;42.710;23.378;2023-06-22T00:07:05;12.47;;;10.33;;
20076;SDS011;12348;42.710;23.378;2023-06-22T00:09:34;11.80;;;9.47;;
20076;SDS011;12348;42.710;23.378;2023-06-22T00:12:02;16.53;;;10.23;;
20076;SDS011;12348;42.710;23.378;2023-06-22T00:14:29;10.97;;;9.43;;
20076;SDS011;12348;42.710;23.378;2023-06-22T00:16:56;14.17;;;10.50;;
20076;SDS011;12348;42.710;23.378;2023-06-22T00:19:24;16.17;;;10.93;;
20076;SDS011;12348;42.710;23.378;2023-06-22T00:21:50;17.40;;;10.50;;
20076;SDS011;12348;42.710;23.378;2023-06-22T00:24:18;11.53;;;9.10;;
20076;SDS011;12348;42.710;23.378;2023-06-22T00:26:47;12.80;;;9.83;;
20076;SDS011;12348;42.710;23.378;2023-06-22T00:29:14;14.10;;;9.87;;
20076;SDS011;12348;42.710;23.378;2023-06-22T00:31:41;14.27;;;10.13;;
20076;SDS011;12348;42.710;23.378;2023-06-22T00:34:08;17.10;;;10.37;;
20076;SDS011;12348;42.710;23.378;2023-06-22T00:36:35;16.20;;;10.60;;
20076;SDS011;12348;42.710;23.378;2023-06-22T00:39:02;14.17;;;10.13;;
20076;SDS011;12348;42.710;23.378;2023-06-22T00:41:30;14.60;;;10.57;;
20076;SDS011;12348;42.710;23.378;2023-06-22T00:43:58;13.63;;;10.00;;
20076;SDS011;12348;42.710;23.378;2023-06-22T00:46:25;14.77;;;10.93;;
20076;SDS011;12348;42.710;23.378;2023-06-22T00:48:52;11.90;;;10.17;;
20076;SDS011;12348;42.710;23.378;2023-06-22T00:51:22;12.07;;;9.57;;
20076;SDS011;12348;42.710;23.378;2023-06-22T00:53:49;13.70;;;9.47;;
20076;SDS011;12348;42.710;23.378;2023-06-22T00:56:16;18.63;;;10.33;;
20076;SDS011;12348;42.710;23.378;2023-06-22T00:58:44;14.47;;;10.43;;
20076;SDS011;12348;42.710;23.378;2023-06-22T01:01:13;14.70;;;10.20;;
20076;SDS011;12348;42.710;23.378;2023-06-22T01:03:40;13.67;;;10.23;;
20076;SDS011;12348;42.710;23.378;2023-06-22T01:06:08;13.73;;;10.60;;
20076;SDS011;12348;42.710;23.378;2023-06-22T01:08:42;15.23;;;10.80;;
20076;SDS011;12348;42.710;23.378;2023-06-22T01:11:16;15.67;;;10.50;;
20076;SDS011;12348;42.710;23.378;2023-06-22T01:13:48;15.10;;;11.30;;
20076;SDS011;12348;42.710;23.378;2023-06-22T01:16:23;13.17;;;10.43;;
20076;SDS011;12348;42.710;23.378;2023-06-22T01:18:54;12.13;;;10.23;;
20076;SDS011;12348;42.710;23.378;2023-06-22T01:21:23;17.23;;;10.53;;
20076;SDS011;12348;42.710;23.378;2023-06-22T01:23:56;13.53;;;9.77;;
20076;SDS011;12348;42.710;23.378;2023-06-22T01:26:37;14.47;;;10.20;;
20076;SDS011;12348;42.710;23.378;2023-06-22T01:29:10;18.70;;;11.23;;
20076;SDS011;12348;42.710;23.378;2023-06-22T01:31:39;13.53;;;10.70;;
20076;SDS011;12348;42.710;23.378;2023-06-22T01:34:07;15.13;;;10.90;;
20076;SDS011;12348;42.710;23.378;2023-06-22T01:36:35;16.43;;;11.17;;
20076;SDS011;12348;42.710;23.378;2023-06-22T01:39:04;16.03;;;10.80;;
20076;SDS011;12348;42.710;23.378;2023-06-22T01:41:33;15.43;;;10.47;;
20076;SDS011;12348;42.710;23.378;2023-06-22T01:44:02;14.97;;;10.77;;
20076;SDS011;12348;42.710;23.378;2023-06-22T01:46:33;17.00;;;11.47;;
20076;SDS011;12348;42.710;23.378;2023-06-22T01:49:00;17.57;;;10.90;;
20076;SDS011;12348;42.710;23.378;2023-06-22T01:51:28;14.23;;;11.23;;
20076;SDS011;12348;42.710;23.378;2023-06-22T01:53:55;17.80;;;11.17;;
20076;SDS011;12348;42.710;23.378;2023-06-22T01:56:22;16.10;;;11.30;;
20076;SDS011;12348;42.710;23.378;2023-06-22T01:58:50;16.20;;;10.17;;
20076;SDS011;12348;42.710;23.378;2023-06-22T02:01:23;19.13;;;11.23;;
20076;SDS011;12348;42.710;23.378;2023-06-22T02:03:57;13.97;;;10.67;;
20076;SDS011;12348;42.710;23.378;2023-06-22T02:06:31;15.13;;;11.10;;
20076;SDS011;12348;42.710;23.378;2023-06-22T02:09:02;13.80;;;11.50;;
20076;SDS011;12348;42.710;23.378;2023-06-22T02:11:35;13.70;;;10.67;;
20076;SDS011;12348;42.710;23.378;2023-06-22T02:14:03;16.70;;;10.63;;
20076;SDS011;12348;42.710;23.378;2023-06-22T02:16:32;18.90;;;11.30;;
20076;SDS011;12348;42.710;23.378;2023-06-22T02:19:02;14.43;;;9.87;;
20076;SDS011;12348;42.710;23.378;2023-06-22T02:21:29;16.90;;;11.47;;
20076;SDS011;12348;42.710;23.378;2023-06-22T02:23:56;16.37;;;11.43;;
20076;SDS011;12348;42.710;23.378;2023-06-22T02:26:24;18.70;;;11.90;;
20076;SDS011;12348;42.710;23.378;2023-06-22T02:28:51;19.40;;;11.80;;
20076;SDS011;12348;42.710;23.378;2023-06-22T02:31:18;15.47;;;12.33;;
20076;SDS011;12348;42.710;23.378;2023-06-22T02:33:46;17.10;;;11.00;;
20076;SDS011;12348;42.710;23.378;2023-06-22T02:36:15;15.33;;;11.60;;
20076;SDS011;12348;42.710;23.378;2023-06-22T02:38:41;18.07;;;12.40;;
20076;SDS011;12348;42.710;23.378;2023-06-22T02:41:13;14.60;;;11.77;;
20076;SDS011;12348;42.710;23.378;2023-06-22T02:43:43;15.90;;;12.10;;
20076;SDS011;12348;42.710;23.378;2023-06-22T02:46:10;17.03;;;11.57;;
20076;SDS011;12348;42.710;23.378;2023-06-22T02:48:38;16.83;;;11.23;;
20076;SDS011;12348;42.710;23.378;2023-06-22T02:51:05;16.23;;;12.17;;
20076;SDS011;12348;42.710;23.378;2023-06-22T02:53:33;20.53;;;11.73;;
20076;SDS011;12348;42.710;23.378;2023-06-22T02:56:00;18.03;;;11.60;;
20076;SDS011;12348;42.710;23.378;2023-06-22T02:58:28;14.20;;;11.30;;
20076;SDS011;12348;42.710;23.378;2023-06-22T03:00:55;18.00;;;12.83;;
20076;SDS011;12348;42.710;23.378;2023-06-22T03:03:21;16.40;;;11.70;;
20076;SDS011;12348;42.710;23.378;2023-06-22T03:05:51;16.77;;;12.20;;
20076;SDS011;12348;42.710;23.378;2023-06-22T03:08:18;16.63;;;11.87;;
20076;SDS011;12348;42.710;23.378;2023-06-22T03:10:46;15.20;;;11.70;;
20076;SDS011;12348;42.710;23.378;2023-06-22T03:13:13;19.10;;;11.50;;
20076;SDS011;12348;42.710;23.378;2023-06-22T03:15:40;19.40;;;12.13;;
20076;SDS011;12348;42.710;23.378;2023-06-22T03:18:07;18.10;;;12.20;;
20076;SDS011;12348;42.710;23.378;2023-06-22T03:20:33;21.40;;;12.20;;
20076;SDS011;12348;42.710;23.378;2023-06-22T03:23:00;21.83;;;15.43;;
20076;SDS011;12348;42.710;23.378;2023-06-22T03:25:27;17.40;;;13.00;;
20076;SDS011;12348;42.710;23.378;2023-06-22T03:27:55;18.00;;;13.00;;
20076;SDS011;12348;42.710;23.378;2023-06-22T03:30:22;20.97;;;14.13;;
20076;SDS011;12348;42.710;23.378;2023-06-22T03:32:48;17.63;;;12.53;;
20076;SDS011;12348;42.710;23.378;2023-06-22T03:35:15;19.77;;;14.20;;
20076;SDS011;12348;42.710;23.378;2023-06-22T03:37:42;19.67;;;13.33;;
20076;SDS011;12348;42.710;23.378;2023-06-22T03:40:09;19.70;;;13.93;;
20076;SDS011;12348;42.710;23.378;2023-06-22T03:42:36;24.40;;;13.80;;
20076;SDS011;12348;42.710;23.378;2023-06-22T03:45:05;18.83;;;13.30;;
20076;SDS011;12348;42.710;23.378;2023-06-22T03:47:33;21.07;;;12.97;;
20076;SDS011;12348;42.710;23.378;2023-06-22T03:50:00;15.87;;;11.43;;
20076;SDS011;12348;42.710;23.378;2023-06-22T03:52:28;16.27;;;10.37;;
20076;SDS011;12348;42.710;23.378;2023-06-22T03:54:55;15.43;;;10.60;;
20076;SDS011;12348;42.710;23.378;2023-06-22T03:57:22;16.23;;;9.50;;
20076;SDS011;12348;42.710;23.378;2023-06-22T03:59:49;11.87;;;8.97;;
20076;SDS011;12348;42.710;23.378;2023-06-22T04:02:17;24.57;;;16.77;;
20076;SDS011;12348;42.710;23.378;2023-06-22T04:04:44;29.97;;;18.73;;
20076;SDS011;12348;42.710;23.378;2023-06-22T04:07:10;17.23;;;11.43;;
20076;SDS011;12348;42.710;23.378;2023-06-22T04:09:37;15.80;;;9.47;;
20076;SDS011;12348;42.710;23.378;2023-06-22T04:12:04;31.23;;;20.20;;
20076;SDS011;12348;42.710;23.378;2023-06-22T04:14:32;34.23;;;20.90;;
20076;SDS011;12348;42.710;23.378;2023-06-22T04:16:58;19.00;;;12.03;;
20076;SDS011;12348;42.710;23.378;2023-06-22T04:19:27;20.53;;;13.33;;
20076;SDS011;12348;42.710;23.378;2023-06-22T04:21:54;21.50;;;15.30;;
20076;SDS011;12348;42.710;23.378;2023-06-22T04:24:20;23.57;;;15.30;;
20076;SDS011;12348;42.710;23.378;2023-06-22T04:26:49;15.50;;;11.47;;
20076;SDS011;12348;42.710;23.378;2023-06-22T04:29:19;15.47;;;9.73;;
20076;SDS011;12348;42.710;23.378;2023-06-22T04:31:55;16.53;;;10.73;;
20076;SDS011;12348;42.710;23.378;2023-06-22T04:34:23;17.80;;;10.47;;
20076;SDS011;12348;42.710;23.378;2023-06-22T04:36:52;15.80;;;9.53;;
20076;SDS011;12348;42.710;23.378;2023-06-22T04:39:21;12.60;;;9.20;;
20076;SDS011;12348;42.710;23.378;2023-06-22T04:41:48;13.90;;;11.30;;
20076;SDS011;12348;42.710;23.378;2023-06-22T04:44:16;15.33;;;10.63;;
20076;SDS011;12348;42.710;23.378;2023-06-22T04:46:49;15.67;;;10.47;;
20076;SDS011;12348;42.710;23.378;2023-06-22T04:49:19;12.20;;;9.27;;
20076;SDS011;12348;42.710;23.378;2023-06-22T04:51:48;10.67;;;8.47;;
20076;SDS011;12348;42.710;23.378;2023-06-22T04:54:18;15.43;;;9.03;;
20076;SDS011;12348;42.710;23.378;2023-06-22T04:56:45;10.13;;;8.93;;
20076;SDS011;12348;42.710;23.378;2023-06-22T04:59:11;11.73;;;7.83;;
20076;SDS011;12348;42.710;23.378;2023-06-22T05:01:39;12.03;;;10.20;;
20076;SDS011;12348;42.710;23.378;2023-06-22T05:04:07;12.20;;;9.23;;
20076;SDS011;12348;42.710;23.378;2023-06-22T05:06:34;16.10;;;10.63;;
20076;SDS011;12348;42.710;23.378;2023-06-22T05:09:00;14.30;;;11.30;;
20076;SDS011;12348;42.710;23.378;2023-06-22T05:11:29;11.53;;;9.07;;
20076;SDS011;12348;42.710;23.378;2023-06-22T05:13:56;9.93;;;7.47;;
20076;SDS011;12348;42.710;23.378;2023-06-22T05:16:23;11.60;;;8.15;;
20076;SDS011;12348;42.710;23.378;2023-06-22T05:18:51;12.35;;;8.25;;
20076;SDS011;12348;42.710;23.378;2023-06-22T05:21:21;9.95;;;7.70;;
20076;SDS011;12348;42.710;23.378;2023-06-22T05:23:49;11.45;;;7.82;;
20076;SDS011;12348;42.710;23.378;2023-06-22T05:26:16;13.73;;;7.47;;
20076;SDS011;12348;42.710;23.378;2023-06-22T05:28:44;13.00;;;7.35;;
20076;SDS011;12348;42.710;23.378;2023-06-22T05:31:12;10.07;;;8.32;;
20076;SDS011;12348;42.710;23.378;2023-06-22T05:33:40;9.02;;;8.07;;
20076;SDS011;12348;42.710;23.378;2023-06-22T05:36:06;12.23;;;8.30;;
20076;SDS011;12348;42.710;23.378;2023-06-22T05:38:34;8.60;;;7.20;;
20076;SDS011;12348;42.710;23.378;2023-06-22T05:41:01;11.57;;;8.30;;
20076;SDS011;12348;42.710;23.378;2023-06-22T05:43:28;10.93;;;8.45;;
20076;SDS011;12348;42.710;23.378;2023-06-22T05:45:56;15.63;;;8.10;;
20076;SDS011;12348;42.710;23.378;2023-06-22T05:48:23;10.25;;;8.18;;
20076;SDS011;12348;42.710;23.378;2023-06-22T05:50:50;10.60;;;7.82;;
20076;SDS011;12348;42.710;23.378;2023-06-22T05:53:17;9.45;;;8.15;;
20076;SDS011;12348;42.710;23.378;2023-06-22T05:55:44;15.38;;;8.50;;
20076;SDS011;12348;42.710;23.378;2023-06-22T05:58:11;10.20;;;8.40;;
20076;SDS011;12348;42.710;23.378;2023-06-22T06:00:38;11.13;;;8.30;;
20076;SDS011;12348;42.710;23.378;2023-06-22T06:03:07;9.13;;;8.07;;
20076;SDS011;12348;42.710;23.378;2023-06-22T06:05:36;10.98;;;8.98;;
20076;SDS011;12348;42.710;23.378;2023-06-22T06:08:04;11.45;;;8.32;;
20076;SDS011;12348;42.710;23.378;2023-06-22T06:10:32;11.25;;;9.43;;
20076;SDS011;12348;42.710;23.378;2023-06-22T06:12:59;11.60;;;8.65;;
20076;SDS011;12348;42.710;23.378;2023-06-22T06:15:29;10.50;;;9.05;;
20076;SDS011;12348;42.710;23.378;2023-06-22T06:17:56;12.50;;;8.70;;
20076;SDS011;12348;42.710;23.378;2023-06-22T06:20:25;13.38;;;9.00;;
20076;SDS011;12348;42.710;23.378;2023-06-22T06:22:53;12.13;;;9.53;;
20076;SDS011;12348;42.710;23.378;2023-06-22T06:25:21;15.45;;;8.30;;
20076;SDS011;12348;42.710;23.378;2023-06-22T06:27:48;11.75;;;8.32;;
20076;SDS011;12348;42.710;23.378;2023-06-22T06:30:16;15.57;;;11.07;;
20076;SDS011;12348;42.710;23.378;2023-06-22T06:32:44;14.55;;;8.90;;
20076;SDS011;12348;42.710;23.378;2023-06-22T06:35:12;9.10;;;7.20;;
20076;SDS011;12348;42.710;23.378;2023-06-22T06:37:42;13.32;;;8.82;;
20076;SDS011;12348;42.710;23.378;2023-06-22T06:40:11;12.65;;;8.30;;
20076;SDS011;12348;42.710;23.378;2023-06-22T06:42:39;12.25;;;8.57;;
20076;SDS011;12348;42.710;23.378;2023-06-22T06:45:07;16.10;;;8.10;;
20076;SDS011;12348;42.710;23.378;2023-06-22T06:47:34;9.57;;;6.68;;
20076;SDS011;12348;42.710;23.378;2023-06-22T06:50:01;10.10;;;6.90;;
20076;SDS011;12348;42.710;23.378;2023-06-22T06:52:29;8.38;;;6.82;;
20076;SDS011;12348;42.710;23.378;2023-06-22T06:54:57;12.35;;;7.18;;
20076;SDS011;12348;42.710;23.378;2023-06-22T06:57:24;10.40;;;8.00;;
20076;SDS011;12348;42.710;23.378;2023-06-22T06:59:54;9.13;;;7.93;;
20076;SDS011;12348;42.710;23.378;2023-06-22T07:02:21;11.20;;;7.75;;
20076;SDS011;12348;42.710;23.378;2023-06-22T07:04:48;11.38;;;8.23;;
20076;SDS011;12348;42.710;23.378;2023-06-22T07:07:15;11.13;;;8.67;;
20076;SDS011;12348;42.710;23.378;2023-06-22T07:09:43;12.02;;;9.70;;
20076;SDS011;12348;42.710;23.378;2023-06-22T07:12:11;14.60;;;8.90;;
20076;SDS011;12348;42.710;23.378;2023-06-22T07:14:38;13.53;;;9.30;;
20076;SDS011;12348;42.710;23.378;2023-06-22T07:17:04;9.03;;;7.77;;
20076;SDS011;12348;42.710;23.378;2023-06-22T07:19:32;8.50;;;7.60;;
20076;SDS011;12348;42.710;23.378;2023-06-22T07:21:59;9.23;;;8.00;;
20076;SDS011;12348;42.710;23.378;2023-06-22T07:24:26;8.57;;;7.45;;
20076;SDS011;12348;42.710;23.378;2023-06-22T07:26:53;9.82;;;8.02;;
20076;SDS011;12348;42.710;23.378;2023-06-22T07:29:21;15.52;;;9.40;;
20076;SDS011;12348;42.710;23.378;2023-06-22T07:31:48;11.75;;;9.18;;
20076;SDS011;12348;42.710;23.378;2023-06-22T07:34:16;11.32;;;7.30;;
20076;SDS011;12348;42.710;23.378;2023-06-22T07:36:43;10.95;;;7.15;;
20076;SDS011;12348;42.710;23.378;2023-06-22T07:39:11;11.23;;;6.47;;
20076;SDS011;12348;42.710;23.378;2023-06-22T07:41:38;9.15;;;6.10;;
20076;SDS011;12348;42.710;23.378;2023-06-22T07:44:05;8.73;;;6.28;;
20076;SDS011;12348;42.710;23.378;2023-06-22T07:46:34;7.32;;;6.60;;
20076;SDS011;12348;42.710;23.378;2023-06-22T07:49:01;9.35;;;6.30;;
20076;SDS011;12348;42.710;23.378;2023-06-22T07:51:28;6.75;;;6.05;;
20076;SDS011;12348;42.710;23.378;2023-06-22T07:53:55;6.70;;;6.10;;
20076;SDS011;12348;42.710;23.378;2023-06-22T07:56:21;8.68;;;6.72;;
20076;SDS011;12348;42.710;23.378;2023-06-22T07:58:48;8.80;;;7.90;;
20076;SDS011;12348;42.710;23.378;2023-06-22T08:01:15;9.65;;;7.05;;
20076;SDS011;12348;42.710;23.378;2023-06-22T08:03:43;10.85;;;7.30;;
20076;SDS011;12348;42.710;23.378;2023-06-22T08:06:10;11.38;;;7.88;;
20076;SDS011;12348;42.710;23.378;2023-06-22T08:08:36;9.27;;;7.72;;
20076;SDS011;12348;42.710;23.378;2023-06-22T08:11:03;12.23;;;8.60;;
20076;SDS011;12348;42.710;23.378;2023-06-22T08:13:30;16.65;;;8.90;;
20076;SDS011;12348;42.710;23.378;2023-06-22T08:15:57;14.65;;;9.05;;
20076;SDS011;12348;42.710;23.378;2023-06-22T08:18:24;12.98;;;8.43;;
20076;SDS011;12348;42.710;23.378;2023-06-22T08:20:52;16.98;;;8.98;;
20076;SDS011;12348;42.710;23.378;2023-06-22T08:23:19;16.05;;;9.48;;
20076;SDS011;12348;42.710;23.378;2023-06-22T08:25:45;12.63;;;9.07;;
20076;SDS011;12348;42.710;23.378;2023-06-22T08:28:13;16.85;;;9.05;;
20076;SDS011;12348;42.710;23.378;2023-06-22T08:30:39;19.27;;;9.63;;
20076;SDS011;12348;42.710;23.378;2023-06-22T08:33:06;15.60;;;9.13;;
20076;SDS011;12348;42.710;23.378;2023-06-22T08:35:33;18.35;;;8.95;;
20076;SDS011;12348;42.710;23.378;2023-06-22T08:38:01;14.13;;;9.60;;
20076;SDS011;12348;42.710;23.378;2023-06-22T08:40:28;13.00;;;9.20;;
20076;SDS011;12348;42.710;23.378;2023-06-22T08:42:55;15.25;;;9.52;;
20076;SDS011;12348;42.710;23.378;2023-06-22T08:45:22;13.77;;;10.25;;
20076;SDS011;12348;42.710;23.378;2023-06-22T08:47:48;18.33;;;9.98;;
20076;SDS011;12348;42.710;23.378;2023-06-22T08:50:15;13.90;;;9.82;;
20076;SDS011;12348;42.710;23.378;2023-06-22T08:52:42;14.00;;;8.98;;
20076;SDS011;12348;42.710;23.378;2023-06-22T08:55:10;16.80;;;8.45;;
20076;SDS011;12348;42.710;23.378;2023-06-22T08:57:36;14.10;;;7.78;;
20076;SDS011;12348;42.710;23.378;2023-06-22T09:00:05;15.93;;;8.65;;
20076;SDS011;12348;42.710;23.378;2023-06-22T09:02:40;15.70;;;9.23;;
20076;SDS011;12348;42.710;23.378;2023-06-22T09:05:07;16.25;;;9.38;;
20076;SDS011;12348;42.710;23.378;2023-06-22T09:07:34;16.23;;;9.60;;
20076;SDS011;12348;42.710;23.378;2023-06-22T09:10:01;11.80;;;8.57;;
20076;SDS011;12348;42.710;23.378;2023-06-22T09:12:31;11.52;;;8.88;;
20076;SDS011;12348;42.710;23.378;2023-06-22T09:14:58;12.73;;;8.65;;
20076;SDS011;12348;42.710;23.378;2023-06-22T09:17:26;14.30;;;8.43;;
20076;SDS011;12348;42.710;23.378;2023-06-22T09:19:53;12.85;;;8.40;;
20076;SDS011;12348;42.710;23.378;2023-06-22T09:22:19;8.93;;;7.80;;
20076;SDS011;12348;42.710;23.378;2023-06-22T09:24:47;10.32;;;7.75;;
20076;SDS011;12348;42.710;23.378;2023-06-22T09:27:13;11.02;;;8.00;;
20076;SDS011;12348;42.710;23.378;2023-06-22T09:29:42;9.25;;;7.78;;
20076;SDS011;12348;42.710;23.378;2023-06-22T09:32:09;11.93;;;7.93;;
20076;SDS011;12348;42.710;23.378;2023-06-22T09:34:35;8.20;;;6.80;;
20076;SDS011;12348;42.710;23.378;2023-06-22T09:37:02;13.27;;;6.95;;
20076;SDS011;12348;42.710;23.378;2023-06-22T09:39:29;9.25;;;6.40;;
20076;SDS011;12348;42.710;23.378;2023-06-22T09:41:57;7.70;;;6.90;;
20076;SDS011;12348;42.710;23.378;2023-06-22T09:44:25;9.30;;;6.93;;
20076;SDS011;12348;42.710;23.378;2023-06-22T09:46:53;9.32;;;7.00;;
20076;SDS011;12348;42.710;23.378;2023-06-22T09:49:20;8.20;;;7.35;;
20076;SDS011;12348;42.710;23.378;2023-06-22T09:51:46;10.70;;;7.07;;
20076;SDS011;12348;42.710;23.378;2023-06-22T09:54:14;9.20;;;6.60;;
20076;SDS011;12348;42.710;23.378;2023-06-22T09:56:41;8.77;;;7.82;;
20076;SDS011;12348;42.710;23.378;2023-06-22T09:59:08;7.60;;;6.63;;
20076;SDS011;12348;42.710;23.378;2023-06-22T10:01:34;8.00;;;6.82;;
20076;SDS011;12348;42.710;23.378;2023-06-22T10:04:03;7.82;;;6.30;;
20076;SDS011;12348;42.710;23.378;2023-06-22T10:06:29;9.50;;;7.35;;
20076;SDS011;12348;42.710;23.378;2023-06-22T10:08:56;13.25;;;9.32;;
20076;SDS011;12348;42.710;23.378;2023-06-22T10:11:23;10.38;;;7.78;;
20076;SDS011;12348;42.710;23.378;2023-06-22T10:13:55;7.85;;;6.57;;
20076;SDS011;12348;42.710;23.378;2023-06-22T10:16:23;10.00;;;6.90;;
20076;SDS011;12348;42.710;23.378;2023-06-22T10:18:51;7.68;;;6.68;;
20076;SDS011;12348;42.710;23.378;2023-06-22T10:21:20;7.25;;;6.55;;
20076;SDS011;12348;42.710;23.378;2023-06-22T10:23:46;11.82;;;7.03;;
20076;SDS011;12348;42.710;23.378;2023-06-22T10:26:13;6.75;;;5.93;;
20076;SDS011;12348;42.710;23.378;2023-06-22T10:28:40;9.75;;;5.57;;
20076;SDS011;12348;42.710;23.378;2023-06-22T10:31:07;14.18;;;8.70;;
20076;SDS011;12348;42.710;23.378;2023-06-22T10:33:33;7.10;;;5.88;;
20076;SDS011;12348;42.710;23.378;2023-06-22T10:36:00;6.88;;;6.10;;
20076;SDS011;12348;42.710;23.378;2023-06-22T10:38:28;10.50;;;9.43;;
20076;SDS011;12348;42.710;23.378;2023-06-22T10:40:55;10.45;;;9.02;;
20076;SDS011;12348;42.710;23.378;2023-06-22T10:43:22;11.13;;;8.82;;
20076;SDS011;12348;42.710;23.378;2023-06-22T10:45:49;8.07;;;7.22;;
20076;SDS011;12348;42.710;23.378;2023-06-22T10:48:16;7.93;;;6.80;;
20076;SDS011;12348;42.710;23.378;2023-06-22T10:50:42;7.65;;;6.82;;
20076;SDS011;12348;42.710;23.378;2023-06-22T10:53:09;7.88;;;6.63;;
20076;SDS011;12348;42.710;23.378;2023-06-22T10:55:37;7.63;;;6.82;;
20076;SDS011;12348;42.710;23.378;2023-06-22T10:58:04;7.93;;;7.13;;
20076;SDS011;12348;42.710;23.378;2023-06-22T11:00:30;11.40;;;7.63;;
20076;SDS011;12348;42.710;23.378;2023-06-22T11:02:57;18.85;;;13.35;;
20076;SDS011;12348;42.710;23.378;2023-06-22T11:05:24;8.52;;;7.60;;
20076;SDS011;12348;42.710;23.378;2023-06-22T11:07:51;7.38;;;6.68;;
20076;SDS011;12348;42.710;23.378;2023-06-22T11:10:18;14.15;;;9.27;;
20076;SDS011;12348;42.710;23.378;2023-06-22T11:12:46;10.68;;;8.20;;
20076;SDS011;12348;42.710;23.378;2023-06-22T11:15:12;8.73;;;6.57;;
20076;SDS011;12348;42.710;23.378;2023-06-22T11:17:39;12.15;;;8.05;;
20076;SDS011;12348;42.710;23.378;2023-06-22T11:20:06;10.45;;;8.57;;
20076;SDS011;12348;42.710;23.378;2023-06-22T11:22:45;9.63;;;7.38;;
20076;SDS011;12348;42.710;23.378;2023-06-22T11:25:12;12.18;;;9.00;;
20076;SDS011;12348;42.710;23.378;2023-06-22T11:27:39;15.98;;;10.65;;
20076;SDS011;12348;42.710;23.378;2023-06-22T11:30:08;11.13;;;8.38;;
20076;SDS011;12348;42.710;23.378;2023-06-22T11:32:35;15.95;;;10.23;;
20076;SDS011;12348;42.710;23.378;2023-06-22T11:35:02;8.50;;;7.27;;
20076;SDS011;12348;42.710;23.378;2023-06-22T11:37:29;11.25;;;7.22;;
20076;SDS011;12348;42.710;23.378;2023-06-22T11:39:56;8.47;;;7.10;;
20076;SDS011;12348;42.710;23.378;2023-06-22T11:42:23;7.00;;;6.30;;
20076;SDS011;12348;42.710;23.378;2023-06-22T11:44:50;11.43;;;7.47;;
20076;SDS011;12348;42.710;23.378;2023-06-22T11:47:18;12.00;;;7.73;;
20076;SDS011;12348;42.710;23.378;2023-06-22T11:49:45;9.60;;;6.93;;
20076;SDS011;12348;42.710;23.378;2023-06-22T11:52:12;8.90;;;7.17;;
20076;SDS011;12348;42.710;23.378;2023-06-22T11:54:38;9.20;;;7.53;;
20076;SDS011;12348;42.710;23.378;2023-06-22T11:57:05;11.60;;;6.87;;
20076;SDS011;12348;42.710;23.378;2023-06-22T11:59:32;8.40;;;7.50;;
20076;SDS011;12348;42.710;23.378;2023-06-22T12:01:59;9.67;;;7.30;;
20076;SDS011;12348;42.710;23.378;2023-06-22T12:04:27;9.97;;;8.07;;
20076;SDS011;12348;42.710;23.378;2023-06-22T12:06:54;7.97;;;7.17;;
20076;SDS011;12348;42.710;23.378;2023-06-22T12:09:21;11.05;;;8.90;;
20076;SDS011;12348;42.710;23.378;2023-06-22T12:11:47;9.70;;;7.40;;
20076;SDS011;12348;42.710;23.378;2023-06-22T12:14:14;18.27;;;10.13;;
20076;SDS011;12348;42.710;23.378;2023-06-22T12:16:41;12.20;;;7.83;;
20076;SDS011;12348;42.710;23.378;2023-06-22T12:19:09;9.80;;;8.03;;
20076;SDS011;12348;42.710;23.378;2023-06-22T12:21:37;11.87;;;7.73;;
20076;SDS011;12348;42.710;23.378;2023-06-22T12:24:04;14.03;;;8.20;;
20076;SDS011;12348;42.710;23.378;2023-06-22T12:26:31;16.10;;;9.13;;
20076;SDS011;12348;42.710;23.378;2023-06-22T12:28:57;16.93;;;8.83;;
20076;SDS011;12348;42.710;23.378;2023-06-22T12:31:25;15.60;;;9.30;;
20076;SDS011;12348;42.710;23.378;2023-06-22T12:33:52;13.57;;;8.70;;
20076;SDS011;12348;42.710;23.378;2023-06-22T12:36:19;13.10;;;9.40;;
20076;SDS011;12348;42.710;23.378;2023-06-22T12:38:47;13.60;;;8.93;;
20076;SDS011;12348;42.710;23.378;2023-06-22T12:41:13;11.93;;;7.80;;
20076;SDS011;12348;42.710;23.378;2023-06-22T12:43:40;19.53;;;8.37;;
20076;SDS011;12348;42.710;23.378;2023-06-22T12:46:07;11.07;;;7.70;;
20076;SDS011;12348;42.710;23.378;2023-06-22T12:48:34;11.40;;;7.13;;
20076;SDS011;12348;42.710;23.378;2023-06-22T12:51:06;14.07;;;8.00;;
20076;SDS011;12348;42.710;23.378;2023-06-22T12:53:33;14.00;;;8.23;;
20076;SDS011;12348;42.710;23.378;2023-06-22T12:56:01;13.90;;;8.10;;
20076;SDS011;12348;42.710;23.378;2023-06-22T12:58:29;13.13;;;7.43;;
20076;SDS011;12348;42.710;23.378;2023-06-22T13:00:55;13.40;;;8.93;;
20076;SDS011;12348;42.710;23.378;2023-06-22T13:03:22;18.63;;;8.73;;
20076;SDS011;12348;42.710;23.378;2023-06-22T13:05:50;16.10;;;9.00;;
20076;SDS011;12348;42.710;23.378;2023-06-22T13:08:20;10.27;;;7.80;;
20076;SDS011;12348;42.710;23.378;2023-06-22T13:10:49;12.00;;;7.73;;
20076;SDS011;12348;42.710;23.378;2023-06-22T13:13:17;11.23;;;7.73;;
20076;SDS011;12348;42.710;23.378;2023-06-22T13:15:44;12.53;;;8.47;;
20076;SDS011;12348;42.710;23.378;2023-06-22T13:18:11;11.20;;;8.07;;
20076;SDS011;12348;42.710;23.378;2023-06-22T13:20:38;11.83;;;8.00;;
20076;SDS011;12348;42.710;23.378;2023-06-22T13:23:05;13.00;;;8.33;;
20076;SDS011;12348;42.710;23.378;2023-06-22T13:25:32;11.77;;;8.40;;
20076;SDS011;12348;42.710;23.378;2023-06-22T13:27:58;14.00;;;7.70;;
20076;SDS011;12348;42.710;23.378;2023-06-22T13:30:27;10.57;;;6.90;;
20076;SDS011;12348;42.710;23.378;2023-06-22T13:32:54;11.80;;;6.57;;
20076;SDS011;12348;42.710;23.378;2023-06-22T13:35:20;16.23;;;7.90;;
20076;SDS011;12348;42.710;23.378;2023-06-22T13:37:47;11.73;;;8.27;;
20076;SDS011;12348;42.710;23.378;2023-06-22T13:40:14;18.03;;;7.90;;
20076;SDS011;12348;42.710;23.378;2023-06-22T13:42:41;13.60;;;9.30;;
20076;SDS011;12348;42.710;23.378;2023-06-22T13:45:08;14.93;;;9.80;;
20076;SDS011;12348;42.710;23.378;2023-06-22T13:47:37;14.67;;;10.33;;
20076;SDS011;12348;42.710;23.378;2023-06-22T13:50:04;13.67;;;9.33;;
20076;SDS011;12348;42.710;23.378;2023-06-22T13:52:32;13.30;;;9.57;;
20076;SDS011;12348;42.710;23.378;2023-06-22T13:54:58;19.47;;;11.83;;
20076;SDS011;12348;42.710;23.378;2023-06-22T13:57:25;15.90;;;10.17;;
20076;SDS011;12348;42.710;23.378;2023-06-22T13:59:52;15.43;;;9.27;;
20076;SDS011;12348;42.710;23.378;2023-06-22T14:02:19;13.93;;;9.03;;
20076;SDS011;12348;42.710;23.378;2023-06-22T14:04:47;13.77;;;8.63;;
20076;SDS011;12348;42.710;23.378;2023-06-22T14:07:14;13.20;;;10.70;;
20076;SDS011;12348;42.710;23.378;2023-06-22T14:09:41;14.27;;;10.60;;
20076;SDS011;12348;42.710;23.378;2023-06-22T14:12:08;17.40;;;9.67;;
20076;SDS011;12348;42.710;23.378;2023-06-22T14:14:35;16.70;;;10.17;;
20076;SDS011;12348;42.710;23.378;2023-06-22T14:17:02;13.17;;;9.33;;
20076;SDS011;12348;42.710;23.378;2023-06-22T14:19:29;24.37;;;13.70;;
20076;SDS011;12348;42.710;23.378;2023-06-22T14:21:57;16.03;;;10.77;;
20076;SDS011;12348;42.710;23.378;2023-06-22T14:24:24;19.40;;;11.33;;
20076;SDS011;12348;42.710;23.378;2023-06-22T14:26:51;16.47;;;9.80;;